Accueil
METAR-TAF:

METAR-TAF

Aéroports :

Bamako, Mali

Aéroport international Modibo Keïta

latitude: 12-32N, longitude: 007-57W, altitude: 380 m

Observation

Le bulletin a été fait il y a 34 minutes, à 00:00 UTC
Vent calme
Température 21°C
Humidité 40%
Pression 1014 hPa
Visibilité: 8000 m

METAR: GABS 140000Z 00000KT 8000 NSC 21/07 Q1014 NOSIG

Heure: 00:34 (00:34 UTC)

Prévision

Le bulletin a été fait il y a 1 heure et 29 minutes, à 23:05 UTC
Prévision valable du 14 à 00 UTC au 15 à 06 UTC
Vent 10 kt de nord
Visibilité: 6000 m
Probabilité 40% :
Temporairement
du 14 à 06 UTC au 14 à 11 UTC
Visibilité: 3000 m
brume sèche
Probabilité 40% :
Temporairement
du 14 à 14 UTC au 14 à 20 UTC
Vent 10 kt de est/nord-est
Probabilité 40% :
Temporairement
du 14 à 17 UTC au 14 à 22 UTC
Visibilité: 4000 m
brume sèche

TAF: GABS 132305Z 1400/1506 36010KT 6000 NSC PROB40 TEMPO 1406/1411 3000 HZ PROB40 TEMPO 1414/1420 07010KT PROB40 TEMPO 1417/1422 4000 HZ

Observations et prévisions météorologiques de plus de 4000 aéroports (messages METAR et TAF).

Les stations disponibles sont représentées par des disques jaunes et rouges sur la carte.

Passer la souris dessus pour voir le nom de la station.

Cliquer dessus pour voir les observations et prévisions météorologiques.

Pour changer de carte: cliquez sur les boutons verts avec une croix noire pour zoomer, sur le bouton vert avec un tiret pour effectuer un zoom arrière, ou sur les flèches vertes pour les cartes adjacentes.


METAR-TAF: